Terminal Aerodrome Forecast
Issued by NWS

Home | Current Version | Previous Version | Text Only | Print | Product List | Glossary On
Versions: 1 2 3 4 5 6 7 8 9 10 11 12 13 14 15 16 17 18 19 20 21 22 23 24 25 26 27 28 29
000
FTUS43 KDLH 200400 AAB
TAFBRD
TAF AMD
KBRD 200434Z 2005/2024 21004KT 1 1/2SM BR SCT004
     FM200800 29007G15KT P6SM BKN007
     FM201400 29009G18KT P6SM BKN015
     FM201600 28011G18KT P6SM SCT030
     FM202100 27011KT P6SM -TSRA BKN040CB=

USA.gov is the U.S. government's official web portal to all federal, state and local government web resources and services.